createdAt,value
2023-04-09T00:01:34.231Z,98984.03
2023-04-09T00:06:39.465Z,98985.66
2023-04-09T00:11:43.396Z,98996.84
2023-04-09T00:16:47.278Z,98998.06
2023-04-09T00:21:52.701Z,98989.47
2023-04-09T00:26:56.993Z,98996.69
2023-04-09T00:32:01.093Z,98993.00
2023-04-09T00:37:06.409Z,98984.28
2023-04-09T00:42:10.330Z,98997.00
2023-04-09T00:47:14.510Z,98990.97
2023-04-09T00:52:20.086Z,98999.84
2023-04-09T00:57:24.325Z,98990.28
2023-04-09T01:02:30.976Z,98993.56
2023-04-09T01:07:46.827Z,99003.63
2023-04-09T01:12:59.412Z,98991.44
2023-04-09T01:18:07.907Z,98988.28
2023-04-09T01:23:20.269Z,98984.56
2023-04-09T01:28:28.907Z,98987.81
2023-04-09T01:33:33.674Z,98985.00
2023-04-09T01:38:38.213Z,98985.66
2023-04-09T01:43:45.046Z,98976.72
2023-04-09T01:48:49.775Z,98977.22
2023-04-09T01:53:53.776Z,98967.78
2023-04-09T01:58:59.211Z,98969.88
2023-04-09T02:04:05.384Z,98961.28
2023-04-09T02:09:10.677Z,98964.44
2023-04-09T02:14:17.200Z,98961.78
2023-04-09T02:19:21.170Z,98954.66
2023-04-09T02:24:25.313Z,98954.72
2023-04-09T02:29:30.707Z,98950.84
2023-04-09T02:34:34.594Z,98956.59
2023-04-09T02:39:38.494Z,98967.53
2023-04-09T02:44:44.378Z,98955.16
2023-04-09T02:49:50.103Z,98946.31
2023-04-09T02:54:54.576Z,98950.72
2023-04-09T03:00:00.012Z,98962.50
2023-04-09T03:05:04.619Z,98961.16
2023-04-09T03:10:09.320Z,98952.06
2023-04-09T03:15:14.690Z,98953.00
2023-04-09T03:20:18.815Z,98959.00
2023-04-09T03:25:22.829Z,98954.91
2023-04-09T03:30:31.737Z,98961.59
2023-04-09T03:35:38.320Z,98955.56
2023-04-09T03:40:42.725Z,98952.13
2023-04-09T03:45:48.322Z,98953.31
2023-04-09T03:51:02.386Z,98944.81
2023-04-09T03:56:14.420Z,98952.94
2023-04-09T04:01:20.695Z,98956.59
2023-04-09T04:06:35.692Z,98957.31
2023-04-09T04:12:03.385Z,98952.47
2023-04-09T04:17:41.166Z,98961.97
2023-04-09T04:22:54.684Z,98964.44
2023-04-09T04:28:00.533Z,98957.69
2023-04-09T04:33:14.992Z,98961.22
2023-04-09T04:38:24.850Z,98983.00
2023-04-09T04:43:29.889Z,98976.22
2023-04-09T04:48:37.859Z,98973.81
2023-04-09T04:53:41.912Z,98975.94
2023-04-09T04:58:49.709Z,98972.59
2023-04-09T05:03:57.855Z,98973.34
2023-04-09T05:09:06.974Z,98975.66
2023-04-09T05:14:18.943Z,98980.91
2023-04-09T05:19:24.255Z,98983.25
2023-04-09T05:24:34.571Z,98987.47
2023-04-09T05:29:38.745Z,98987.97
2023-04-09T05:34:46.616Z,98995.50
2023-04-09T05:39:50.724Z,98997.03
2023-04-09T05:44:55.097Z,98996.16
2023-04-09T05:50:00.629Z,98999.22
2023-04-09T05:55:05.875Z,98999.94
2023-04-09T06:00:19.829Z,99004.06
2023-04-09T06:05:27.036Z,98999.28
2023-04-09T06:10:33.500Z,98999.38
2023-04-09T06:15:39.000Z,99010.75
2023-04-09T06:20:44.602Z,99007.22
2023-04-09T06:25:48.609Z,99010.94
2023-04-09T06:30:53.586Z,99004.00
2023-04-09T06:35:58.865Z,99012.75
2023-04-09T06:41:03.675Z,99009.47
2023-04-09T06:46:07.841Z,99016.56
2023-04-09T06:51:13.373Z,99008.25
2023-04-09T06:56:17.433Z,99022.56
2023-04-09T07:01:21.495Z,99034.34
2023-04-09T07:06:27.316Z,99037.91
2023-04-09T07:11:31.472Z,99034.53
2023-04-09T07:16:35.731Z,99036.22
2023-04-09T07:21:41.692Z,99038.34
2023-04-09T07:26:45.718Z,99043.06
2023-04-09T07:31:49.801Z,99038.97
2023-04-09T07:36:55.757Z,99038.81
2023-04-09T07:42:00.185Z,99051.94
2023-04-09T07:47:04.912Z,99043.66
2023-04-09T07:52:10.754Z,99049.16
2023-04-09T07:57:14.619Z,99048.81
2023-04-09T08:02:18.763Z,99046.03
2023-04-09T08:07:24.188Z,99047.72
2023-04-09T08:12:28.761Z,99045.03
2023-04-09T08:17:32.849Z,99045.81
2023-04-09T08:22:38.508Z,99046.38
2023-04-09T08:27:42.606Z,99056.16
2023-04-09T08:32:47.170Z,99054.72
2023-04-09T08:37:52.491Z,99057.13
2023-04-09T08:42:57.838Z,99053.78
2023-04-09T08:48:03.889Z,99056.75
2023-04-09T08:53:11.537Z,99055.81
2023-04-09T08:58:15.637Z,99061.91
2023-04-09T09:03:19.855Z,99051.28
2023-04-09T09:08:26.791Z,99051.94
2023-04-09T09:13:31.280Z,99052.56
2023-04-09T09:18:39.707Z,99057.97
2023-04-09T09:23:45.567Z,99067.53
2023-04-09T09:28:52.988Z,99064.97
2023-04-09T09:33:57.276Z,99059.47
2023-04-09T09:39:05.351Z,99055.97
2023-04-09T09:44:11.682Z,99058.63
2023-04-09T09:49:15.948Z,99047.69
2023-04-09T09:54:23.717Z,99052.56
2023-04-09T09:59:31.911Z,99049.97
2023-04-09T10:04:36.816Z,99043.41
2023-04-09T10:09:42.965Z,99050.09
2023-04-09T10:14:47.296Z,99042.13
2023-04-09T10:20:02.610Z,99048.34
2023-04-09T10:25:08.965Z,99044.69
2023-04-09T10:30:32.479Z,99043.25
2023-04-09T10:35:36.719Z,99030.03
2023-04-09T10:40:49.609Z,99023.63
2023-04-09T10:45:54.497Z,99029.03
2023-04-09T10:50:58.695Z,99029.34
2023-04-09T10:56:15.629Z,99019.16
2023-04-09T11:01:24.161Z,99025.59
2023-04-09T11:06:29.131Z,99030.63
2023-04-09T11:11:35.824Z,99032.22
2023-04-09T11:16:40.477Z,99035.56
2023-04-09T11:21:46.326Z,99040.22
2023-04-09T11:26:51.830Z,99033.44
2023-04-09T11:31:55.850Z,99027.94
2023-04-09T11:36:59.921Z,99028.81
2023-04-09T11:42:05.347Z,99033.94
2023-04-09T11:47:10.522Z,99031.88
2023-04-09T11:52:16.791Z,99031.97
2023-04-09T11:57:22.463Z,99030.00
2023-04-09T12:02:27.263Z,99043.88
2023-04-09T12:07:33.887Z,99041.59
2023-04-09T12:12:43.990Z,99039.16
2023-04-09T12:17:50.776Z,99053.25
2023-04-09T12:22:54.952Z,99045.97
2023-04-09T12:28:00.452Z,99037.91
2023-04-09T12:33:05.428Z,99047.50
2023-04-09T12:38:09.807Z,99044.69
2023-04-09T12:43:15.746Z,99039.91
2023-04-09T12:48:19.722Z,99037.88
2023-04-09T12:53:24.264Z,99030.50
2023-04-09T12:58:30.047Z,99037.44
2023-04-09T13:03:34.503Z,99037.25
2023-04-09T13:08:38.550Z,99041.63
2023-04-09T13:13:44.350Z,99036.13
2023-04-09T13:18:48.502Z,99037.56
2023-04-09T13:23:52.782Z,99030.47
2023-04-09T13:28:58.706Z,99039.78
2023-04-09T13:34:03.774Z,99040.16
2023-04-09T13:39:07.960Z,99044.88
2023-04-09T13:44:13.948Z,99039.53
2023-04-09T13:49:18.519Z,99041.88
2023-04-09T13:54:22.688Z,99045.72
2023-04-09T13:59:28.010Z,99046.16
2023-04-09T14:04:32.153Z,99038.72
2023-04-09T14:09:36.218Z,99043.06
2023-04-09T14:14:41.678Z,99043.09
2023-04-09T14:19:46.605Z,99040.53
2023-04-09T14:24:51.138Z,99033.28
2023-04-09T14:29:56.585Z,99033.34
2023-04-09T14:35:00.736Z,99035.31
2023-04-09T14:40:05.397Z,99038.16
2023-04-09T14:45:12.095Z,99029.84
2023-04-09T14:50:16.467Z,99029.56
2023-04-09T14:55:21.119Z,99024.78
2023-04-09T15:00:26.919Z,99025.97
2023-04-09T15:05:31.121Z,99023.00
2023-04-09T15:10:37.674Z,99024.84
2023-04-09T15:15:44.324Z,99021.50
2023-04-09T15:20:49.205Z,99024.31
2023-04-09T15:25:53.570Z,99018.19
2023-04-09T15:31:00.501Z,99024.47
2023-04-09T15:36:04.705Z,99022.50
2023-04-09T15:41:08.883Z,99021.69
2023-04-09T15:46:16.520Z,99027.09
2023-04-09T15:51:22.935Z,99030.13
2023-04-09T15:56:27.187Z,99031.50
2023-04-09T16:01:33.081Z,99029.19
2023-04-09T16:06:38.346Z,99034.41
2023-04-09T16:11:42.531Z,99027.28
2023-04-09T16:16:50.156Z,99035.19
2023-04-09T16:21:54.701Z,99039.03
2023-04-09T16:26:58.984Z,99028.78
2023-04-09T16:32:04.755Z,99037.50
2023-04-09T16:37:08.954Z,99026.31
2023-04-09T16:42:12.845Z,99043.06
2023-04-09T16:47:18.063Z,99035.53
2023-04-09T16:52:21.941Z,99048.03
2023-04-09T16:57:26.434Z,99046.25
2023-04-09T17:02:31.752Z,99050.41
2023-04-09T17:07:36.564Z,99047.34
2023-04-09T17:12:40.705Z,99046.69
2023-04-09T17:17:49.533Z,99047.84
2023-04-09T17:22:54.172Z,99056.78
2023-04-09T17:27:58.899Z,99056.53
2023-04-09T17:33:04.703Z,99068.47
2023-04-09T17:38:08.854Z,99069.59
2023-04-09T17:43:14.363Z,99081.38
2023-04-09T17:48:19.805Z,99081.56
2023-04-09T17:53:24.233Z,99085.69
2023-04-09T17:58:28.906Z,99096.53
2023-04-09T18:03:34.791Z,99101.19
2023-04-09T18:08:39.206Z,99095.28
2023-04-09T18:13:43.468Z,99096.69
2023-04-09T18:18:48.906Z,99113.66
2023-04-09T18:23:53.313Z,99105.97
2023-04-09T18:29:00.637Z,99112.97
2023-04-09T18:34:06.587Z,99120.75
2023-04-09T18:39:10.890Z,99123.25
2023-04-09T18:44:15.086Z,99124.78
2023-04-09T18:49:21.038Z,99125.41
2023-04-09T18:54:25.800Z,99132.28
2023-04-09T18:59:29.737Z,99130.50
2023-04-09T19:04:39.796Z,99128.19
2023-04-09T19:09:44.607Z,99132.53
2023-04-09T19:14:48.872Z,99131.19
2023-04-09T19:19:54.345Z,99137.34
2023-04-09T19:24:58.692Z,99149.53
2023-04-09T19:30:02.804Z,99138.31
2023-04-09T19:35:09.177Z,99139.94
2023-04-09T19:40:17.113Z,99142.09
2023-04-09T19:45:21.272Z,99150.84
2023-04-09T19:50:27.342Z,99144.41
2023-04-09T19:55:31.782Z,99145.63
2023-04-09T20:00:35.956Z,99156.13
2023-04-09T20:05:41.667Z,99160.50
2023-04-09T20:10:47.445Z,99159.25
2023-04-09T20:15:52.015Z,99149.84
2023-04-09T20:20:57.273Z,99152.81
2023-04-09T20:26:02.658Z,99157.47
2023-04-09T20:31:07.692Z,99157.19
2023-04-09T20:36:17.338Z,99155.09
2023-04-09T20:41:21.343Z,99149.09
2023-04-09T20:46:25.297Z,99150.56
2023-04-09T20:51:31.711Z,99152.22
2023-04-09T20:56:35.867Z,99145.50
2023-04-09T21:01:39.864Z,99147.16
2023-04-09T21:06:45.547Z,99140.72
2023-04-09T21:11:49.635Z,99147.94
2023-04-09T21:16:55.821Z,99137.56
2023-04-09T21:22:01.843Z,99138.50
2023-04-09T21:27:07.678Z,99148.22
2023-04-09T21:32:11.993Z,99141.34
2023-04-09T21:37:17.495Z,99143.97
2023-04-09T21:42:21.948Z,99143.03
2023-04-09T21:47:26.511Z,99144.91
2023-04-09T21:52:33.447Z,99147.69
2023-04-09T21:57:37.647Z,99150.16
2023-04-09T22:02:42.089Z,99147.69
2023-04-09T22:07:47.608Z,99153.44
2023-04-09T22:12:51.792Z,99146.09
2023-04-09T22:17:56.199Z,99136.34
2023-04-09T22:23:01.549Z,99135.91
2023-04-09T22:28:07.488Z,99131.13
2023-04-09T22:33:11.927Z,99126.34
2023-04-09T22:38:17.178Z,99130.72
2023-04-09T22:43:21.442Z,99132.25
2023-04-09T22:48:26.038Z,99140.03
2023-04-09T22:53:31.520Z,99142.19
2023-04-09T22:58:35.838Z,99141.78
2023-04-09T23:03:40.012Z,99155.06
2023-04-09T23:08:45.686Z,99152.59
2023-04-09T23:13:49.837Z,99135.13
2023-04-09T23:18:54.447Z,99135.13
2023-04-09T23:24:00.153Z,99132.28
2023-04-09T23:29:05.093Z,99132.41
2023-04-09T23:34:08.991Z,99119.13
2023-04-09T23:39:14.508Z,99111.75
2023-04-09T23:44:18.454Z,99104.59
2023-04-09T23:49:22.721Z,99106.88
2023-04-09T23:54:28.333Z,99100.91
2023-04-09T23:59:35.384Z,99110.44
